Data for 09/03/2016

Time Sea-Level Adjusted Pressure Absolute Pressure Temperature Relative Humidity Dew Point   
(mb) (inHg) (mb) (inHg) (C) (F) (%) (C) (F)
00:05 1017 30.03 846 24.98 13.3 55.9 54 4.1 39.4
00:10 1017 30.03 846 24.98 13.2 55.8 54 4.1 39.4
00:15 1017 30.03 846 24.98 13.2 55.7 54 4 39.2
00:20 1017 30.03 846 24.98 13.1 55.5 55 4.2 39.5
00:25 1017 30.03 846 24.98 12.9 55.3 56 4.4 39.9
00:30 1017 30.03 846 24.98 12.6 54.7 59 4.8 40.6
00:35 1017 30.03 846 24.98 12.3 54.2 57 4.1 39.4
00:40 1017 30.03 846 24.98 12.5 54.5 56 4 39.2
00:45 1017 30.03 846 24.98 12.6 54.7 56 4 39.3
00:50 1017 30.03 846 24.98 12.6 54.6 57 4.2 39.6
00:55 1017 30.03 846 24.98 12.5 54.6 56 4.1 39.4
01:00 1017 30.03 846 24.98 12.7 54.8 56 4.2 39.5
01:05 1017 30.03 846 24.98 12.8 55 56 4.2 39.5
01:10 1017 30.03 846 24.98 12.8 55 56 4.2 39.6
01:15 1017 30.03 846 24.98 12.8 55 56 4.4 39.9
01:20 1017 30.03 846 24.98 12.8 55 57 4.5 40.1
01:25 1017 30.03 846 24.98 12.7 54.8 58 4.7 40.5
01:30 1017 30.03 846 24.98 12.4 54.4 61 5.1 41.2
01:35 1017 30.03 846 24.98 12.2 54 62 5.3 41.5
01:40 1017 30.03 846 24.98 12 53.7 64 5.5 41.8
01:45 1017 30.03 846 24.98 11.9 53.5 65 5.7 42.2
01:50 1017 30.03 846 24.98 11.8 53.3 66 5.7 42.3
01:55 1017 30.03 846 24.98 11.8 53.3 67 6 42.8
02:00 1017 30.03 846 24.98 11.8 53.2 68 6.1 43
02:05 1017 30.03 846 24.98 11.7 53 69 6.2 43.2
02:10 1017 30.03 846 24.98 11.5 52.8 69 6 42.9
02:15 1017 30.03 846 24.98 11.3 52.4 69 6 42.7
02:20 1017 30.03 846 24.98 11.1 52.1 70 5.9 42.7
02:25 1017 30.03 846 24.98 11.1 51.9 70 5.8 42.5
02:30 1017 30.03 846 24.98 11.2 52.1 69 5.7 42.2
02:35 1017 30.03 846 24.98 11.3 52.3 68 5.7 42.2
02:40 1017 30.03 846 24.98 11.4 52.4 68 5.7 42.2
02:45 1017 30.03 846 24.98 11.4 52.5 68 5.7 42.2
02:50 1017 30.03 846 24.98 11.4 52.4 68 5.7 42.2
02:55 1017 30.03 846 24.98 11.4 52.5 67 5.6 42
03:00 1017 30.03 846 24.98 11.5 52.7 66 5.5 41.9
03:05 1017 30.03 846 24.98 11.5 52.7 66 5.4 41.6
03:10 1017 30.03 846 24.98 11.6 52.9 65 5.4 41.7
03:15 1016 30 846 24.98 11.6 52.9 65 5.3 41.6
03:20 1016 30 846 24.98 11.7 53.1 65 5.4 41.7
03:25 1016 30 845 24.95 11.7 53.1 65 5.5 41.9
03:30 1016 30 846 24.98 11.8 53.3 65 5.6 42.1
03:35 1017 30.03 846 24.98 11.9 53.4 66 5.7 42.2
03:40 1017 30.03 846 24.98 11.9 53.4 66 5.7 42.3
03:45 1017 30.03 846 24.98 11.7 53.1 66 5.7 42.3
03:50 1017 30.03 846 24.98 11.7 53 67 5.7 42.3
03:55 1017 30.03 846 24.98 11.7 53 67 5.7 42.2
04:00 1017 30.03 846 24.98 11.7 53 67 5.7 42.3
04:05 1017 30.03 846 24.98 11.6 52.9 67 5.7 42.3
04:10 1017 30.03 846 24.98 11.5 52.8 67 5.6 42.2
04:15 1017 30.03 846 24.98 11.5 52.6 67 5.6 42.1
04:20 1017 30.03 846 24.98 11.4 52.6 68 5.7 42.3
04:25 1017 30.03 846 24.98 11.4 52.5 68 5.7 42.2
04:30 1017 30.03 846 24.98 11.3 52.3 69 5.8 42.4
04:35 1017 30.03 846 24.98 11.1 52 70 5.8 42.5
04:40 1017 30.03 846 24.98 11 51.8 71 5.9 42.6
04:45 1017 30.03 846 24.98 10.9 51.6 71 5.9 42.5
04:50 1017 30.03 846 24.98 10.8 51.5 71 5.9 42.5
04:55 1017 30.03 846 24.98 10.7 51.3 72 5.9 42.5
05:00 1017 30.03 846 24.98 10.7 51.2 72 5.8 42.5
05:05 1017 30.03 846 24.98 10.5 50.8 73 5.8 42.4
05:10 1017 30.03 846 24.98 10.4 50.8 72 5.7 42.3
05:15 1017 30.03 846 24.98 10.5 50.8 72 5.7 42.3
05:20 1017 30.03 846 24.98 10.4 50.7 73 5.7 42.2
05:25 1017 30.03 846 24.98 10.3 50.6 72 5.6 42
05:30 1017 30.03 846 24.98 10.5 50.8 71 5.4 41.7
05:35 1017 30.03 846 24.98 10.6 51 71 5.5 41.9
05:40 1017 30.03 846 24.98 10.6 51.1 70 5.4 41.8
05:45 1017 30.03 846 24.98 10.6 51.1 70 5.3 41.5
05:50 1017 30.03 846 24.98 10.6 51.1 69 5.2 41.3
05:55 1017 30.03 846 24.98 10.6 51.1 69 5.2 41.3
06:00 1017 30.03 846 24.98 10.6 51.1 69 5.1 41.2
06:05 1017 30.03 846 24.98 10.6 51 68 5 41
06:10 1017 30.03 846 24.98 10.5 50.9 68 4.9 40.8
06:15 1017 30.03 846 24.98 10.5 51 68 4.8 40.7
06:20 1017 30.03 846 24.98 10.5 51 68 4.8 40.7
06:25 1017 30.03 846 24.98 10.5 51 67 4.8 40.6
06:30 1017 30.03 846 24.98 10.5 50.8 67 4.7 40.5
06:35 1017 30.03 846 24.98 10.4 50.7 68 4.7 40.4
06:40 1017 30.03 846 24.98 10.4 50.7 67 4.6 40.3
06:45 1017 30.03 846 24.98 10.4 50.6 67 4.6 40.3
06:50 1017 30.03 846 24.98 10.3 50.6 67 4.5 40.1
06:55 1017 30.03 846 24.98 10.2 50.4 67 4.4 40
07:00 1017 30.03 847 25.01 10.2 50.4 68 4.6 40.3
07:05 1017 30.03 847 25.01 10.2 50.4 68 4.6 40.3
07:10 1017 30.03 847 25.01 10.2 50.4 67 4.5 40.1
07:15 1017 30.03 847 25.01 10.3 50.5 67 4.4 39.9
07:20 1017 30.03 847 25.01 10.4 50.6 65 4.1 39.3
07:25 1017 30.03 847 25.01 10.4 50.7 65 4.2 39.6
07:30 1017 30.03 847 25.01 10.5 50.8 65 4.2 39.6
07:35 1017 30.03 847 25.01 10.5 51 65 4.3 39.8
07:40 1018 30.06 847 25.01 10.5 50.9 65 4.2 39.5
07:45 1018 30.06 847 25.01 10.5 50.9 64 4 39.1
07:50 1018 30.06 847 25.01 10.6 51 64 4.1 39.4
07:55 1018 30.06 847 25.01 10.7 51.2 64 4.2 39.5
08:00 1018 30.06 847 25.01 10.8 51.4 63 4.1 39.5
08:05 1018 30.06 847 25.01 11.1 51.9 62 4.2 39.6
08:10 1018 30.06 847 25.01 11.1 52.1 63 4.3 39.7
08:15 1018 30.06 847 25.01 10.9 51.5 64 4.3 39.8
08:20 1018 30.06 847 25.01 11.1 51.9 62 4.1 39.4
08:25 1018 30.06 847 25.01 11.4 52.5 60 4 39.2
08:30 1018 30.06 847 25.01 11.6 52.9 58 3.6 38.5
08:35 1018 30.06 847 25.01 12 53.5 56 3.4 38.1
08:40 1018 30.06 847 25.01 12 53.6 56 3.7 38.6
08:45 1018 30.06 847 25.01 12.1 53.7 55 3.5 38.2
08:50 1018 30.06 847 25.01 12.3 54.1 54 3.2 37.7
08:55 1018 30.06 847 25.01 12.3 54.1 54 3.4 38.2
09:00 1018 30.06 847 25.01 12.4 54.4 53 3.2 37.8
09:05 1018 30.06 847 25.01 12.5 54.4 53 3.3 38
09:10 1018 30.06 847 25.01 12.8 55 52 3.3 37.9
09:15 1018 30.06 847 25.01 12.7 54.9 52 3.1 37.6
09:20 1018 30.06 847 25.01 12.5 54.4 52 2.9 37.2
09:25 1018 30.06 847 25.01 12.8 55 51 3 37.3
09:30 1018 30.06 847 25.01 13.1 55.5 50 3 37.3
09:35 1018 30.06 847 25.01 13.1 55.7 50 3.1 37.6
09:40 1018 30.06 847 25.01 13.1 55.5 49 2.8 37
09:45 1018 30.06 847 25.01 13.2 55.8 49 2.9 37.2
09:50 1018 30.06 847 25.01 13.3 55.9 49 2.8 37
09:55 1018 30.06 847 25.01 13.3 55.9 48 2.6 36.8
10:00 1018 30.06 847 25.01 13.3 55.9 49 2.9 37.1
10:05 1018 30.06 847 25.01 13.3 56 48 2.6 36.6
10:10 1018 30.06 847 25.01 13.7 56.6 46 2.3 36.2
10:15 1018 30.06 847 25.01 14.1 57.4 45 2.5 36.6
10:20 1018 30.06 847 25.01 14.4 57.9 45 2.6 36.8
10:25 1018 30.06 847 25.01 14.4 57.9 45 2.6 36.6
10:30 1018 30.06 847 25.01 14.2 57.6 44 2.2 36
10:35 1018 30.06 847 25.01 14.6 58.3 44 2.6 36.6
10:40 1018 30.06 847 25.01 15 59 43 2.7 36.8
10:45 1018 30.06 847 25.01 14.5 58 46 3 37.3
10:50 1018 30.06 847 25.01 14.1 57.4 46 2.7 36.8
10:55 1018 30.06 847 25.01 14.4 57.9 45 2.6 36.8
11:00 1018 30.06 847 25.01 14.8 58.7 44 2.7 36.8
11:05 1018 30.06 847 25.01 14.9 58.7 44 2.7 36.9
11:10 1018 30.06 847 25.01 14.8 58.6 45 3.2 37.7
11:15 1018 30.06 847 25.01 14.8 58.6 43 2.3 36.2
11:20 1018 30.06 847 25.01 14.7 58.4 43 2.5 36.4
11:25 1017 30.03 847 25.01 14.6 58.3 43 2.4 36.4
11:30 1017 30.03 847 25.01 15.4 59.7 41 2.1 35.9
11:35 1017 30.03 846 24.98 15.9 60.7 40 2.5 36.4
11:40 1017 30.03 846 24.98 15.9 60.5 39 1.9 35.5
11:45 1017 30.03 846 24.98 16.1 60.9 37 1.4 34.5
11:50 1017 30.03 846 24.98 16.2 61.2 37 1.6 34.8
11:55 1017 30.03 846 24.98 16.7 62 39 2.6 36.7
12:00 1017 30.03 846 24.98 16.8 62.2 36 1.9 35.4
12:05 1017 30.03 846 24.98 16.7 62.1 36 1.5 34.8
12:10 1017 30.03 846 24.98 16.6 61.9 39 2.6 36.7
12:15 1017 30.03 846 24.98 16.5 61.7 35 1 33.7
12:20 1017 30.03 846 24.98 16.8 62.2 35 1.5 34.8
12:25 1017 30.03 846 24.98 17 62.6 35 1.6 34.8
12:30 1017 30.03 846 24.98 16.2 61.2 38 1.9 35.4
12:35 1017 30.03 846 24.98 16.3 61.3 36 1.3 34.4
12:40 1017 30.03 846 24.98 16.3 61.3 35 1 33.8
12:45 1017 30.03 846 24.98 16.6 61.9 33 0.5 32.8
12:50 1017 30.03 846 24.98 16.5 61.6 34 0.5 32.9
12:55 1017 30.03 846 24.98 17 62.6 33 0.6 33.1
13:00 1017 30.03 846 24.98 17.1 62.8 32 0.5 33
13:05 1017 30.03 846 24.98 17.2 63 31 0.3 32.5
13:10 1017 30.03 846 24.98 17.1 62.7 32 0.5 32.9
13:15 1017 30.03 846 24.98 17.1 62.7 32 0.2 32.4
13:20 1017 30.03 846 24.98 16.7 62.1 32 0.2 32.3
13:25 1017 30.03 846 24.98 17.2 62.9 31 0.2 32.3
13:30 1017 30.03 846 24.98 18.2 64.8 31 0.7 33.3
13:35 1017 30.03 846 24.98 18 64.5 30 0.4 32.6
13:40 1017 30.03 846 24.98 18.1 64.6 30 0.3 32.5
13:45 1016 30 846 24.98 18 64.4 30 0.5 32.9
13:50 1016 30 846 24.98 18.1 64.6 30 0.4 32.8
13:55 1016 30 846 24.98 18 64.4 33 1.5 34.6
14:00 1016 30 845 24.95 17.8 64 31 0.7 33.2
14:05 1016 30 845 24.95 18.4 65.2 29 0.1 32.1
14:10 1016 30 845 24.95 19 66.2 29 0.7 33.3
14:15 1016 30 845 24.95 19.1 66.4 29 0.6 33.1
14:20 1016 30 845 24.95 19.1 66.4 30 1.3 34.3
14:25 1016 30 845 24.95 18.9 66.1 29 0.8 33.5
14:30 1016 30 845 24.95 18.8 65.9 29 0.4 32.6
14:35 1016 30 845 24.95 18.8 65.9 29 0.7 33.3
14:40 1016 30 845 24.95 18.5 65.3 30 0.7 33.2
14:45 1016 30 845 24.95 18.8 65.8 29 0.5 32.9
14:50 1016 30 845 24.95 19.1 66.4 30 1.3 34.4
14:55 1016 30 845 24.95 18.6 65.6 30 0.7 33.3
15:00 1016 30 845 24.95 18.4 65.2 30 0.8 33.4
15:05 1016 30 845 24.95 18.5 65.4 30 0.9 33.6
15:10 1016 30 845 24.95 18.6 65.5 30 0.7 33.2
15:15 1016 30 845 24.95 18.8 65.8 30 0.8 33.4
15:20 1016 30 845 24.95 18.5 65.3 29 0.5 32.9
15:25 1015 29.97 845 24.95 18.8 65.8 29 0.7 33.2
15:30 1015 29.97 845 24.95 18.7 65.7 30 0.9 33.5
15:35 1015 29.97 845 24.95 19.3 66.7 28 0.6 33.1
15:40 1015 29.97 845 24.95 19.1 66.3 30 1.3 34.4
15:45 1015 29.97 844 24.92 18.8 65.9 30 1 33.9
15:50 1015 29.97 844 24.92 18.9 65.9 28 0.3 32.6
15:55 1015 29.97 844 24.92 19.1 66.3 30 1.1 33.9
16:00 1015 29.97 844 24.92 18.9 65.9 30 0.8 33.5
16:05 1015 29.97 844 24.92 18.6 65.4 30 1 33.7
16:10 1015 29.97 844 24.92 18.7 65.7 30 0.9 33.6
16:15 1015 29.97 844 24.92 18.7 65.6 30 0.9 33.5
16:20 1015 29.97 844 24.92 18.8 65.8 30 1 33.8
16:25 1015 29.97 844 24.92 19.2 66.6 29 0.7 33.3
16:30 1015 29.97 844 24.92 18.8 65.9 30 1.2 34.1
16:35 1015 29.97 844 24.92 19 66.2 30 1 33.9
16:40 1015 29.97 844 24.92 18.7 65.7 30 1 33.8
16:45 1015 29.97 844 24.92 18.5 65.3 31 1.2 34.1
16:50 1015 29.97 844 24.92 18.2 64.7 32 1.2 34.2
16:55 1015 29.97 844 24.92 18.1 64.5 32 1.1 34
17:00 1015 29.97 844 24.92 18.1 64.5 33 1.7 35
17:05 1015 29.97 844 24.92 18 64.5 32 1.3 34.3
17:10 1015 29.97 844 24.92 17.8 64 33 1.6 34.8
17:15 1015 29.97 844 24.92 17.8 64 35 2.3 36.2
17:20 1015 29.97 844 24.92 17.7 63.9 36 2.6 36.7
17:25 1014 29.94 844 24.92 17.6 63.7 34 1.8 35.3
17:30 1014 29.94 844 24.92 17.5 63.5 34 1.8 35.2
17:35 1014 29.94 844 24.92 17.6 63.7 33 1.3 34.4
17:40 1014 29.94 844 24.92 17.6 63.6 32 0.9 33.7
17:45 1015 29.97 844 24.92 17.5 63.4 33 1.2 34.2
17:50 1015 29.97 844 24.92 17.4 63.4 33 1.2 34.1
17:55 1015 29.97 844 24.92 17.3 63.1 35 1.7 35.1
18:00 1015 29.97 844 24.92 16.9 62.5 37 2.4 36.3
18:05 1015 29.97 844 24.92 16.6 61.8 39 2.8 37
18:10 1015 29.97 844 24.92 16.3 61.4 41 3.1 37.5
18:15 1015 29.97 844 24.92 16.2 61.1 40 2.8 37
18:20 1015 29.97 844 24.92 15.9 60.5 44 3.6 38.5
18:25 1015 29.97 844 24.92 15.3 59.5 46 3.9 39.1
18:30 1015 29.97 844 24.92 15 59 46 3.6 38.4
18:35 1015 29.97 845 24.95 15.1 59.3 46 3.7 38.6
18:40 1015 29.97 845 24.95 15.1 59.2 47 4.1 39.3
18:45 1016 30 845 24.95 15.1 59.1 46 3.5 38.4
18:50 1015 29.97 845 24.95 15.1 59.1 44 3.1 37.6
18:55 1015 29.97 845 24.95 15.1 59.2 46 3.8 38.9
19:00 1016 30 845 24.95 15 59 48 4.1 39.4
19:05 1016 30 845 24.95 14.4 58 51 4.6 40.4
19:10 1015 29.97 845 24.95 14 57.3 52 4.5 40.1
19:15 1015 29.97 845 24.95 13.9 57 53 4.5 40.1
19:20 1015 29.97 845 24.95 13.8 56.9 52 4.2 39.5
19:25 1015 29.97 845 24.95 13.9 57 51 4.1 39.4
19:30 1016 30 845 24.95 14.3 57.7 51 4.3 39.7
19:35 1016 30 845 24.95 14.3 57.7 51 4.4 39.9
19:40 1016 30 845 24.95 14.2 57.5 52 4.6 40.4
19:45 1016 30 845 24.95 13.9 57.1 53 4.7 40.5
19:50 1016 30 845 24.95 13.8 56.8 54 4.8 40.6
19:55 1016 30 845 24.95 13.5 56.4 53 4.3 39.8
20:00 1016 30 845 24.95 13.4 56.1 54 4.3 39.8
20:05 1016 30 845 24.95 13.4 56.2 54 4.5 40
20:10 1016 30 845 24.95 13.4 56.1 56 4.9 40.9
20:15 1016 30 845 24.95 13.3 55.9 57 4.9 40.8
20:20 1016 30 845 24.95 13.2 55.8 55 4.4 40
20:25 1016 30 845 24.95 13.3 55.9 56 4.7 40.5
20:30 1016 30 845 24.95 13.3 56 55 4.5 40.1
20:35 1016 30 845 24.95 13.3 56 55 4.6 40.2
20:40 1016 30 845 24.95 13.3 56 56 4.8 40.7
20:45 1016 30 845 24.95 13.5 56.2 55 4.6 40.3
20:50 1016 30 845 24.95 13.5 56.3 54 4.4 40
20:55 1016 30 845 24.95 13.6 56.5 52 4.1 39.4
21:00 1016 30 845 24.95 13.8 56.8 54 4.8 40.7
21:05 1016 30 845 24.95 13.6 56.5 57 5.3 41.5
21:10 1016 30 845 24.95 13.3 56 59 5.6 42.1
21:15 1016 30 845 24.95 12.9 55.2 60 5.3 41.6
21:20 1016 30 845 24.95 12.5 54.6 61 5.2 41.4
21:25 1016 30 846 24.98 12.4 54.4 62 5.5 41.9
21:30 1016 30 846 24.98 12.5 54.5 63 5.6 42.1
21:35 1016 30 846 24.98 12.5 54.4 60 4.9 40.8
21:40 1016 30 846 24.98 12.3 54.1 62 5.3 41.5
21:45 1017 30.03 846 24.98 12.2 53.9 64 5.5 42
21:50 1017 30.03 846 24.98 12.2 54 63 5.5 41.9
21:55 1017 30.03 846 24.98 12.3 54.2 66 6.1 43
22:00 1017 30.03 846 24.98 12.3 54.1 64 5.8 42.4
22:05 1017 30.03 846 24.98 12.2 54 68 6.4 43.5
22:10 1017 30.03 846 24.98 12.1 53.8 66 6 42.7
22:15 1017 30.03 846 24.98 12.1 53.7 68 6.3 43.3
22:20 1017 30.03 846 24.98 11.9 53.4 69 6.5 43.8
22:25 1017 30.03 846 24.98 11.8 53.2 72 6.9 44.4
22:30 1017 30.03 846 24.98 11.7 53.1 73 7.1 44.7
22:35 1017 30.03 846 24.98 11.5 52.6 75 7.2 45
22:40 1017 30.03 846 24.98 11.3 52.3 76 7.3 45.2
22:45 1017 30.03 846 24.98 11.1 52 79 7.6 45.7
22:50 1017 30.03 846 24.98 11 51.7 80 7.6 45.8
22:55 1017 30.03 846 24.98 10.8 51.4 81 7.6 45.7
23:00 1017 30.03 846 24.98 10.7 51.2 81 7.6 45.7
23:05 1017 30.03 846 24.98 10.7 51.2 81 7.5 45.5
23:10 1017 30.03 846 24.98 10.7 51.2 81 7.6 45.7
23:15 1017 30.03 846 24.98 10.6 51.1 82 7.7 45.8
23:20 1017 30.03 846 24.98 10.6 51 83 7.8 46.1
23:25 1016 30 846 24.98 10.5 50.9 83 7.7 45.9
23:30 1016 30 846 24.98 10.5 50.9 82 7.5 45.5
23:35 1016 30 845 24.95 10.4 50.8 82 7.6 45.6
23:40 1016 30 845 24.95 10.4 50.6 80 7.1 44.8
23:45 1016 30 845 24.95 10.3 50.5 78 6.7 44
23:50 1016 30 845 24.95 10.2 50.4 81 7.1 44.8
23:55 1016 30 845 24.95 10.3 50.5 76 6.3 43.4
24:00 1016 30 845 24.95 10.4 50.7 80 7.1 44.8